createdAt,value
2018-02-09T00:02:17.990Z,37.07
2018-02-09T00:04:47.731Z,38.40
2018-02-09T00:07:17.148Z,37.77
2018-02-09T00:09:46.478Z,34.97
2018-02-09T00:12:16.083Z,38.80
2018-02-09T00:14:45.510Z,37.80
2018-02-09T00:17:14.889Z,39.33
2018-02-09T00:19:44.873Z,39.00
2018-02-09T00:22:14.412Z,37.70
2018-02-09T00:24:43.648Z,35.43
2018-02-09T00:27:12.954Z,37.50
2018-02-09T00:29:42.211Z,36.73
2018-02-09T00:32:11.512Z,36.83
2018-02-09T00:34:40.781Z,38.37
2018-02-09T00:37:09.996Z,38.73
2018-02-09T00:39:40.030Z,38.40
2018-02-09T00:42:10.085Z,37.53
2018-02-09T00:44:39.410Z,38.77
2018-02-09T00:47:08.640Z,36.40
2018-02-09T00:49:38.899Z,35.00
2018-02-09T00:52:08.848Z,36.80
2018-02-09T00:54:38.123Z,37.03
2018-02-09T00:57:07.345Z,35.37
2018-02-09T00:59:36.697Z,37.03
2018-02-09T01:02:05.914Z,36.43
2018-02-09T01:04:35.278Z,34.13
2018-02-09T01:07:04.532Z,36.27
2018-02-09T01:09:33.798Z,35.47
2018-02-09T01:12:03.047Z,35.70
2018-02-09T01:14:33.061Z,36.23
2018-02-09T01:17:02.315Z,34.43
2018-02-09T01:19:31.548Z,36.20
2018-02-09T01:22:00.833Z,34.60
2018-02-09T01:24:30.108Z,32.87
2018-02-09T01:26:59.380Z,37.77
2018-02-09T01:29:28.615Z,36.23
2018-02-09T01:31:57.868Z,34.23
2018-02-09T01:34:27.070Z,35.97
2018-02-09T01:36:57.075Z,35.70
2018-02-09T01:39:27.083Z,38.00
2018-02-09T01:41:57.110Z,35.60
2018-02-09T01:44:26.366Z,32.57
2018-02-09T01:46:55.597Z,34.80
2018-02-09T01:49:25.627Z,35.20
2018-02-09T01:51:54.974Z,35.63
2018-02-09T01:54:24.246Z,35.10
2018-02-09T01:56:53.545Z,34.67
2018-02-09T01:59:23.020Z,34.17
2018-02-09T02:01:52.854Z,38.30
2018-02-09T02:04:22.293Z,35.60
2018-02-09T02:06:51.523Z,36.97
2018-02-09T02:09:20.821Z,35.47
2018-02-09T02:11:50.023Z,36.63
2018-02-09T02:14:19.282Z,38.00
2018-02-09T02:16:48.516Z,34.87
2018-02-09T02:19:17.746Z,34.73
2018-02-09T02:21:46.960Z,35.00
2018-02-09T02:24:16.858Z,35.60
2018-02-09T02:26:46.091Z,36.23
2018-02-09T02:29:15.363Z,36.57
2018-02-09T02:31:44.618Z,35.87
2018-02-09T02:34:13.947Z,37.80
2018-02-09T02:36:43.940Z,34.83
2018-02-09T02:39:13.979Z,36.43
2018-02-09T02:41:44.012Z,34.00
2018-02-09T02:44:13.226Z,35.37
2018-02-09T02:46:42.455Z,36.07
2018-02-09T02:49:11.686Z,37.43
2018-02-09T02:51:40.986Z,36.23
2018-02-09T02:54:10.224Z,38.00
2018-02-09T02:56:39.443Z,36.50
2018-02-09T02:59:08.798Z,36.10
2018-02-09T03:01:37.997Z,38.07
2018-02-09T03:04:07.219Z,35.57
2018-02-09T03:06:36.505Z,34.63
2018-02-09T03:09:05.834Z,39.13
2018-02-09T03:11:35.069Z,35.20
2018-02-09T03:14:04.304Z,37.47
2018-02-09T03:16:33.530Z,36.90
2018-02-09T03:19:03.572Z,36.40
2018-02-09T03:21:32.851Z,37.57
2018-02-09T03:24:02.107Z,37.83
2018-02-09T03:26:31.318Z,37.00
2018-02-09T03:29:01.355Z,36.73
2018-02-09T03:31:30.648Z,37.50
2018-02-09T03:33:59.876Z,36.73
2018-02-09T03:36:29.908Z,36.63
2018-02-09T03:38:59.160Z,37.73
2018-02-09T03:41:28.543Z,35.10
2018-02-09T03:43:57.840Z,37.67
2018-02-09T03:46:27.070Z,36.77
2018-02-09T03:48:57.079Z,37.47
2018-02-09T03:51:26.413Z,39.03
2018-02-09T03:53:56.657Z,35.87
2018-02-09T03:56:25.874Z,37.17
2018-02-09T03:58:55.114Z,36.57
2018-02-09T04:01:24.362Z,35.53
2018-02-09T04:03:53.574Z,40.67
2018-02-09T04:06:22.832Z,41.77
2018-02-09T04:08:52.882Z,35.13
2018-02-09T04:11:22.136Z,37.87
2018-02-09T04:13:51.357Z,38.50
2018-02-09T04:16:20.626Z,39.73
2018-02-09T04:18:49.835Z,37.27
2018-02-09T04:21:19.858Z,38.33
2018-02-09T04:23:49.080Z,37.67
2018-02-09T04:26:18.483Z,37.20
2018-02-09T04:28:47.874Z,37.93
2018-02-09T04:31:17.138Z,36.83
2018-02-09T04:33:46.362Z,36.80
2018-02-09T04:36:15.603Z,38.00
2018-02-09T04:38:44.808Z,38.80
2018-02-09T04:41:14.233Z,37.30
2018-02-09T04:43:43.605Z,40.10
2018-02-09T04:46:13.041Z,35.30
2018-02-09T04:48:42.409Z,36.03
2018-02-09T04:51:11.598Z,37.90
2018-02-09T04:53:40.846Z,37.37
2018-02-09T04:56:11.039Z,44.33
2018-02-09T04:58:40.369Z,37.57
2018-02-09T05:01:10.510Z,37.20
2018-02-09T05:03:39.751Z,38.43
2018-02-09T05:06:08.981Z,38.10
2018-02-09T05:08:39.012Z,40.47
2018-02-09T05:11:09.083Z,40.20
2018-02-09T05:13:38.362Z,39.97
2018-02-09T05:16:07.621Z,37.27
2018-02-09T05:18:37.791Z,38.00
2018-02-09T05:21:07.048Z,38.57
2018-02-09T05:23:36.402Z,41.20
2018-02-09T05:26:05.648Z,37.67
2018-02-09T05:28:35.620Z,38.40
2018-02-09T05:31:04.950Z,34.63
2018-02-09T05:33:34.178Z,38.87
2018-02-09T05:36:03.431Z,36.70
2018-02-09T05:38:32.688Z,37.30
2018-02-09T05:41:02.077Z,37.43
2018-02-09T05:43:31.299Z,38.97
2018-02-09T05:46:00.579Z,39.60
2018-02-09T05:48:29.837Z,35.90
2018-02-09T05:50:59.053Z,35.07
2018-02-09T05:53:29.034Z,36.60
2018-02-09T05:55:58.870Z,39.33
2018-02-09T05:58:28.131Z,37.37
2018-02-09T06:00:57.360Z,35.90
2018-02-09T06:03:27.358Z,37.23
2018-02-09T06:05:56.562Z,36.50
2018-02-09T06:08:25.817Z,35.70
2018-02-09T06:10:55.864Z,36.10
2018-02-09T06:13:25.855Z,35.23
2018-02-09T06:15:55.131Z,36.30
2018-02-09T06:18:25.139Z,34.37
2018-02-09T06:20:54.480Z,38.47
2018-02-09T06:23:23.728Z,35.87
2018-02-09T06:25:53.780Z,37.20
2018-02-09T06:28:23.014Z,37.30
2018-02-09T06:30:52.295Z,36.00
2018-02-09T06:33:21.510Z,37.13
2018-02-09T06:35:50.853Z,35.40
2018-02-09T06:38:20.291Z,36.27
2018-02-09T06:40:49.543Z,36.07
2018-02-09T06:43:19.217Z,36.90
2018-02-09T06:45:48.519Z,34.50
2018-02-09T06:48:17.792Z,37.00
2018-02-09T06:50:47.062Z,38.90
2018-02-09T06:53:18.023Z,38.23
2018-02-09T06:55:48.022Z,34.37
2018-02-09T06:58:17.245Z,34.33
2018-02-09T07:00:46.458Z,37.00
2018-02-09T07:03:15.670Z,32.63
2018-02-09T07:05:44.931Z,39.13
2018-02-09T07:08:14.208Z,34.70
2018-02-09T07:10:43.438Z,35.50
2018-02-09T07:13:12.706Z,36.20
2018-02-09T07:15:41.938Z,35.50
2018-02-09T07:18:11.202Z,36.13
2018-02-09T07:20:41.343Z,37.00
2018-02-09T07:23:10.590Z,35.10
2018-02-09T07:25:39.821Z,36.47
2018-02-09T07:28:09.060Z,37.50
2018-02-09T07:30:38.432Z,37.97
2018-02-09T07:33:07.670Z,34.97
2018-02-09T07:35:36.881Z,36.67
2018-02-09T07:38:06.128Z,38.50
2018-02-09T07:40:35.357Z,36.00
2018-02-09T07:43:04.748Z,38.43
2018-02-09T07:45:34.032Z,35.13
2018-02-09T07:48:03.303Z,33.87
2018-02-09T07:50:32.851Z,37.43
2018-02-09T07:53:02.125Z,37.13
2018-02-09T07:55:31.380Z,36.70
2018-02-09T07:58:00.699Z,38.30
2018-02-09T08:00:30.086Z,40.00
2018-02-09T08:02:59.361Z,37.50
2018-02-09T08:05:28.602Z,38.90
2018-02-09T08:07:58.595Z,35.67
2018-02-09T08:10:27.906Z,37.63
2018-02-09T08:12:57.152Z,39.50
2018-02-09T08:15:26.386Z,39.60
2018-02-09T08:17:56.410Z,39.13
2018-02-09T08:20:25.678Z,36.97
2018-02-09T08:22:54.899Z,36.03
2018-02-09T08:25:24.133Z,38.77
2018-02-09T08:27:53.390Z,38.03
2018-02-09T08:30:22.651Z,39.00
2018-02-09T08:32:52.080Z,39.20
2018-02-09T08:35:21.299Z,38.97
2018-02-09T08:37:51.330Z,42.17
2018-02-09T08:40:21.327Z,38.83
2018-02-09T08:42:51.368Z,41.67
2018-02-09T08:45:20.618Z,40.90
2018-02-09T08:47:49.873Z,40.47
2018-02-09T08:50:19.168Z,41.37
2018-02-09T08:52:49.401Z,39.83
2018-02-09T08:55:18.678Z,42.27
2018-02-09T08:57:47.969Z,41.13
2018-02-09T09:00:17.960Z,42.70
2018-02-09T09:02:47.211Z,43.00
2018-02-09T09:05:16.470Z,40.70
2018-02-09T09:07:45.722Z,40.30
2018-02-09T09:10:14.991Z,38.30
2018-02-09T09:12:44.227Z,37.87
2018-02-09T09:15:13.454Z,41.70
2018-02-09T09:17:42.910Z,37.70
2018-02-09T09:20:12.388Z,39.10
2018-02-09T09:22:41.588Z,38.10
2018-02-09T09:25:11.610Z,42.17
2018-02-09T09:27:41.082Z,38.30
2018-02-09T09:30:10.353Z,35.00
2018-02-09T09:32:39.547Z,38.00
2018-02-09T09:35:09.042Z,38.27
2018-02-09T09:37:38.259Z,40.20
2018-02-09T09:40:07.507Z,38.30
2018-02-09T09:42:37.502Z,37.80
2018-02-09T09:45:07.540Z,39.03
2018-02-09T09:47:36.856Z,38.40
2018-02-09T09:50:06.094Z,36.40
2018-02-09T09:52:35.434Z,37.63
2018-02-09T09:55:04.667Z,34.20
2018-02-09T09:57:33.899Z,38.73
2018-02-09T10:00:03.106Z,40.10
2018-02-09T10:02:39.841Z,34.70
2018-02-09T10:05:09.101Z,36.37
2018-02-09T10:07:39.125Z,34.60
2018-02-09T10:10:08.471Z,36.40
2018-02-09T10:12:37.706Z,35.17
2018-02-09T10:15:07.799Z,38.40
2018-02-09T10:17:37.218Z,35.53
2018-02-09T10:20:07.212Z,35.07
2018-02-09T10:22:36.444Z,37.97
2018-02-09T10:25:06.425Z,38.47
2018-02-09T10:27:35.654Z,34.83
2018-02-09T10:30:05.626Z,37.77
2018-02-09T10:32:34.855Z,35.90
2018-02-09T10:35:05.567Z,34.20
2018-02-09T10:37:34.998Z,35.73
2018-02-09T10:40:05.102Z,35.97
2018-02-09T10:42:34.363Z,37.07
2018-02-09T10:45:03.590Z,36.80
2018-02-09T10:47:32.821Z,38.00
2018-02-09T10:50:03.032Z,36.50
2018-02-09T10:52:32.286Z,38.17
2018-02-09T10:55:01.499Z,34.03
2018-02-09T10:57:30.706Z,35.73
2018-02-09T10:59:59.938Z,33.20
2018-02-09T11:02:29.929Z,35.00
2018-02-09T11:04:59.230Z,33.83
2018-02-09T11:07:28.472Z,34.67
2018-02-09T11:09:57.720Z,37.40
2018-02-09T11:12:27.010Z,36.77
2018-02-09T11:14:57.050Z,40.00
2018-02-09T11:17:26.280Z,36.60
2018-02-09T11:19:55.515Z,40.20
2018-02-09T11:22:24.746Z,37.93
2018-02-09T11:24:53.944Z,37.30
2018-02-09T11:27:23.959Z,36.47
2018-02-09T11:29:53.268Z,40.10
2018-02-09T11:32:22.509Z,37.27
2018-02-09T11:34:51.744Z,38.03
2018-02-09T11:37:21.017Z,39.53
2018-02-09T11:39:50.277Z,40.00
2018-02-09T11:42:19.550Z,37.07
2018-02-09T11:44:48.858Z,36.53
2018-02-09T11:47:18.850Z,39.10
2018-02-09T11:49:49.063Z,39.03
2018-02-09T11:52:18.301Z,37.20
2018-02-09T11:54:48.318Z,40.43
2018-02-09T11:57:17.635Z,37.40
2018-02-09T11:59:46.859Z,34.53
2018-02-09T12:02:16.069Z,36.67
2018-02-09T12:04:45.329Z,36.57
2018-02-09T12:07:14.583Z,39.10
2018-02-09T12:09:43.863Z,37.50
2018-02-09T12:12:13.411Z,37.83
2018-02-09T12:14:42.555Z,39.83
2018-02-09T12:17:11.784Z,36.60
2018-02-09T12:19:41.794Z,39.60
2018-02-09T12:22:11.000Z,37.00
2018-02-09T12:24:41.030Z,36.60
2018-02-09T12:27:11.013Z,37.20
2018-02-09T12:29:40.343Z,39.60
2018-02-09T12:32:10.320Z,36.57
2018-02-09T12:34:39.565Z,38.20
2018-02-09T12:37:09.552Z,37.80
2018-02-09T12:39:38.887Z,37.50
2018-02-09T12:42:08.062Z,38.37
2018-02-09T12:44:37.318Z,35.57
2018-02-09T12:47:06.576Z,37.83
2018-02-09T12:49:36.570Z,40.20
2018-02-09T12:52:05.793Z,36.60
2018-02-09T12:54:35.810Z,36.23
2018-02-09T12:57:05.827Z,38.93
2018-02-09T12:59:35.167Z,38.80
2018-02-09T13:02:04.397Z,37.57
2018-02-09T13:04:33.581Z,38.60
2018-02-09T13:07:02.840Z,37.70
2018-02-09T13:09:32.058Z,35.40
2018-02-09T13:12:01.273Z,37.63
2018-02-09T13:14:54.119Z,40.73
2018-02-09T13:17:23.293Z,35.60
2018-02-09T13:19:52.526Z,38.03
2018-02-09T13:22:39.603Z,33.63
2018-02-09T13:25:08.800Z,37.83
2018-02-09T13:27:38.059Z,37.27
2018-02-09T13:30:07.249Z,37.40
2018-02-09T13:32:54.244Z,36.03
2018-02-09T13:35:23.502Z,36.93
2018-02-09T13:37:52.765Z,35.93
2018-02-09T13:40:22.013Z,34.87
2018-02-09T13:42:51.994Z,35.80
2018-02-09T13:45:23.008Z,35.70
2018-02-09T13:47:53.783Z,36.20
2018-02-09T13:50:23.026Z,34.73
2018-02-09T13:52:52.266Z,36.90
2018-02-09T13:55:22.255Z,34.90
2018-02-09T13:57:51.478Z,36.20
2018-02-09T14:00:20.734Z,35.73
2018-02-09T14:02:49.988Z,36.07
2018-02-09T14:05:20.149Z,37.70
2018-02-09T14:07:49.346Z,33.97
2018-02-09T14:10:18.731Z,34.13
2018-02-09T14:12:47.957Z,33.93
2018-02-09T14:15:17.198Z,31.10
2018-02-09T14:17:46.409Z,38.23
2018-02-09T14:20:15.634Z,31.90
2018-02-09T14:22:44.870Z,32.40
2018-02-09T14:25:14.956Z,32.43
2018-02-09T14:27:44.220Z,31.47
2018-02-09T14:30:13.442Z,31.27
2018-02-09T14:32:42.706Z,33.17
2018-02-09T14:35:11.942Z,32.20
2018-02-09T14:37:41.218Z,31.27
2018-02-09T14:40:10.429Z,31.20
2018-02-09T14:42:39.674Z,30.17
2018-02-09T14:45:08.944Z,31.30
2018-02-09T14:47:38.197Z,29.80
2018-02-09T14:50:08.230Z,34.90
2018-02-09T14:52:37.466Z,30.40
2018-02-09T14:55:06.712Z,28.33
2018-02-09T14:57:35.946Z,29.13
2018-02-09T15:00:05.129Z,30.20
2018-02-09T15:02:34.353Z,27.10
2018-02-09T15:05:03.856Z,29.77
2018-02-09T15:07:33.140Z,25.67
2018-02-09T15:10:02.363Z,26.90
2018-02-09T15:12:31.645Z,27.37
2018-02-09T15:15:00.886Z,26.83
2018-02-09T15:17:31.022Z,25.93
2018-02-09T15:20:00.350Z,27.23
2018-02-09T15:22:29.779Z,24.20
2018-02-09T15:24:59.191Z,26.23
2018-02-09T15:27:28.419Z,24.87
2018-02-09T15:29:57.646Z,22.73
2018-02-09T15:32:27.005Z,23.63
2018-02-09T15:34:56.220Z,24.03
2018-02-09T15:37:25.475Z,25.50
2018-02-09T15:39:55.636Z,25.90
2018-02-09T15:42:24.981Z,25.33
2018-02-09T15:44:54.251Z,24.83
2018-02-09T15:47:23.463Z,24.30
2018-02-09T15:49:52.762Z,21.70
2018-02-09T15:52:22.062Z,22.57
2018-02-09T15:54:51.366Z,23.23
2018-02-09T15:57:22.466Z,22.67
2018-02-09T15:59:52.454Z,22.97
2018-02-09T16:02:21.701Z,25.07
2018-02-09T16:04:50.924Z,23.00
2018-02-09T16:07:20.136Z,23.90
2018-02-09T16:09:49.371Z,23.53
2018-02-09T16:12:19.409Z,23.50
2018-02-09T16:14:48.629Z,21.50
2018-02-09T16:17:17.994Z,23.90
2018-02-09T16:19:47.230Z,21.00
2018-02-09T16:22:16.499Z,26.00
2018-02-09T16:24:45.726Z,23.87
2018-02-09T16:27:14.965Z,23.60
2018-02-09T16:29:44.169Z,21.97
2018-02-09T16:32:13.466Z,22.43
2018-02-09T16:34:43.485Z,23.37
2018-02-09T16:37:13.527Z,20.40
2018-02-09T16:39:42.738Z,20.17
2018-02-09T16:42:12.920Z,22.33
2018-02-09T16:44:42.972Z,20.70
2018-02-09T16:47:12.219Z,20.83
2018-02-09T16:49:42.233Z,20.73
2018-02-09T16:52:11.495Z,19.03
2018-02-09T16:54:40.758Z,19.67
2018-02-09T16:57:10.021Z,20.87
2018-02-09T16:59:39.234Z,19.93
2018-02-09T17:02:08.474Z,19.40
2018-02-09T17:04:37.747Z,20.73
2018-02-09T17:07:07.784Z,22.10
2018-02-09T17:09:37.014Z,18.97
2018-02-09T17:12:06.306Z,19.10
2018-02-09T17:14:35.530Z,19.60
2018-02-09T17:17:04.947Z,20.70
2018-02-09T17:19:34.981Z,21.47
2018-02-09T17:22:04.234Z,19.83
2018-02-09T17:24:33.471Z,18.80
2018-02-09T17:27:02.736Z,19.17
2018-02-09T17:29:32.018Z,20.00
2018-02-09T17:32:01.423Z,19.00
2018-02-09T17:34:30.637Z,20.20
2018-02-09T17:37:01.247Z,18.57
2018-02-09T17:39:30.498Z,17.27
2018-02-09T17:42:00.509Z,20.33
2018-02-09T17:44:30.491Z,17.40
2018-02-09T17:46:59.789Z,16.63
2018-02-09T17:49:29.078Z,18.97
2018-02-09T17:51:59.095Z,18.07
2018-02-09T17:54:28.346Z,17.67
2018-02-09T17:56:58.348Z,18.47
2018-02-09T17:59:28.414Z,21.07
2018-02-09T18:01:57.679Z,18.30
2018-02-09T18:04:27.723Z,17.77
2018-02-09T18:06:56.968Z,19.70
2018-02-09T18:09:26.277Z,18.23
2018-02-09T18:11:55.476Z,17.67
2018-02-09T18:14:24.709Z,18.57
2018-02-09T18:16:53.929Z,18.70
2018-02-09T18:19:23.155Z,19.50
2018-02-09T18:21:52.393Z,19.60
2018-02-09T18:24:21.730Z,18.83
2018-02-09T18:26:51.794Z,18.00
2018-02-09T18:29:21.036Z,19.40
2018-02-09T18:31:50.301Z,19.03
2018-02-09T18:34:19.517Z,18.73
2018-02-09T18:36:48.791Z,19.30
2018-02-09T18:39:18.779Z,19.50
2018-02-09T18:41:47.995Z,18.40
2018-02-09T18:44:17.982Z,21.60
2018-02-09T18:46:47.207Z,19.70
2018-02-09T18:49:16.435Z,22.00
2018-02-09T18:51:46.474Z,27.23
2018-02-09T18:54:15.803Z,25.23
2018-02-09T18:56:45.070Z,21.90
2018-02-09T18:59:14.313Z,23.17
2018-02-09T19:01:43.541Z,21.13
2018-02-09T19:04:12.830Z,23.33
2018-02-09T19:06:42.810Z,22.63
2018-02-09T19:09:12.113Z,20.77
2018-02-09T19:11:41.308Z,22.70
2018-02-09T19:14:10.570Z,20.77
2018-02-09T19:16:39.814Z,19.50
2018-02-09T19:19:09.066Z,20.70
2018-02-09T19:21:38.315Z,19.40
2018-02-09T19:24:08.327Z,20.03
2018-02-09T19:26:38.371Z,19.60
2018-02-09T19:29:08.364Z,23.37
2018-02-09T19:31:38.365Z,17.67
2018-02-09T19:34:09.092Z,20.00
2018-02-09T19:36:38.369Z,18.50
2018-02-09T19:39:07.630Z,17.13
2018-02-09T19:41:37.836Z,20.53
2018-02-09T19:44:07.088Z,17.43
2018-02-09T19:46:36.383Z,18.57
2018-02-09T19:49:05.610Z,17.10
2018-02-09T19:51:36.357Z,16.00
2018-02-09T19:54:05.603Z,18.63
2018-02-09T19:56:35.041Z,17.73
2018-02-09T19:59:04.260Z,18.20
2018-02-09T20:01:34.260Z,14.20
2018-02-09T20:04:03.677Z,15.10
2018-02-09T20:06:33.039Z,17.53
2018-02-09T20:09:02.342Z,15.63
2018-02-09T20:11:31.552Z,13.10
2018-02-09T20:14:00.835Z,14.23
2018-02-09T20:16:30.051Z,13.67
2018-02-09T20:18:59.302Z,14.93
2018-02-09T20:21:32.212Z,14.27
2018-02-09T20:24:02.360Z,15.70
2018-02-09T20:26:31.634Z,14.90
2018-02-09T20:29:00.887Z,13.53
2018-02-09T20:31:30.898Z,12.53
2018-02-09T20:34:00.931Z,12.40
2018-02-09T20:36:30.363Z,12.03
2018-02-09T20:39:00.329Z,13.97
2018-02-09T20:41:29.755Z,12.10
2018-02-09T20:43:58.991Z,12.43
2018-02-09T20:46:28.290Z,13.93
2018-02-09T20:48:57.518Z,12.63
2018-02-09T20:51:26.796Z,12.87
2018-02-09T20:53:56.061Z,13.80
2018-02-09T20:56:25.389Z,13.30
2018-02-09T20:58:54.637Z,13.70
2018-02-09T21:01:23.940Z,15.00
2018-02-09T21:03:53.206Z,19.67
2018-02-09T21:06:22.459Z,29.13
2018-02-09T21:08:52.465Z,30.63
2018-02-09T21:11:22.458Z,25.37
2018-02-09T21:13:52.536Z,25.43
2018-02-09T21:16:22.719Z,24.80
2018-02-09T21:18:53.021Z,42.83
2018-02-09T21:21:23.031Z,61.60
2018-02-09T21:23:52.304Z,37.03
2018-02-09T21:26:21.555Z,33.10
2018-02-09T21:28:50.787Z,35.47
2018-02-09T21:31:20.055Z,36.13
2018-02-09T21:33:49.348Z,49.37
2018-02-09T21:36:18.570Z,19.37
2018-02-09T21:38:47.807Z,13.17
2018-02-09T21:41:18.559Z,14.50
2018-02-09T21:43:48.521Z,15.10
2018-02-09T21:46:17.746Z,16.40
2018-02-09T21:48:46.994Z,14.93
2018-02-09T21:51:16.217Z,16.03
2018-02-09T21:53:46.286Z,14.17
2018-02-09T21:56:16.281Z,13.30
2018-02-09T21:58:45.495Z,15.07
2018-02-09T22:01:15.489Z,13.50
2018-02-09T22:03:46.220Z,12.70
2018-02-09T22:06:15.467Z,12.57
2018-02-09T22:08:44.752Z,14.03
2018-02-09T22:11:14.774Z,12.87
2018-02-09T22:13:43.999Z,12.43
2018-02-09T22:16:13.428Z,12.00
2018-02-09T22:18:42.935Z,12.20
2018-02-09T22:21:12.277Z,14.80
2018-02-09T22:23:42.390Z,12.63
2018-02-09T22:26:12.406Z,13.70
2018-02-09T22:28:42.586Z,14.80
2018-02-09T22:31:11.825Z,14.93
2018-02-09T22:33:41.043Z,13.63
2018-02-09T22:36:10.329Z,12.37
2018-02-09T22:38:40.298Z,13.77
2018-02-09T22:41:09.538Z,12.20
2018-02-09T22:43:38.832Z,12.97
2018-02-09T22:46:08.190Z,13.10
2018-02-09T22:48:37.454Z,12.10
2018-02-09T22:51:06.709Z,11.57
2018-02-09T22:53:35.957Z,14.20
2018-02-09T22:56:06.061Z,12.97
2018-02-09T22:58:35.281Z,11.40
2018-02-09T23:01:04.623Z,11.90
2018-02-09T23:03:33.871Z,13.77
2018-02-09T23:06:03.099Z,12.47
2018-02-09T23:08:32.334Z,12.27
2018-02-09T23:11:02.372Z,12.20
2018-02-09T23:13:31.593Z,13.60
2018-02-09T23:16:00.794Z,13.80
2018-02-09T23:18:30.018Z,13.43
2018-02-09T23:21:00.742Z,13.13
2018-02-09T23:23:30.048Z,14.40
2018-02-09T23:25:59.278Z,13.53
2018-02-09T23:28:29.312Z,14.47
2018-02-09T23:30:58.582Z,14.87
2018-02-09T23:33:28.576Z,13.00
2018-02-09T23:35:57.808Z,14.40
2018-02-09T23:38:27.064Z,13.60
2018-02-09T23:40:56.275Z,15.60
2018-02-09T23:43:25.507Z,14.70
2018-02-09T23:45:54.741Z,12.23
2018-02-09T23:48:23.961Z,14.33
2018-02-09T23:50:53.207Z,14.40
2018-02-09T23:53:22.459Z,14.77
2018-02-09T23:55:51.697Z,12.87
2018-02-09T23:58:20.928Z,14.20
